Terminal Aerodrome Forecast
Issued by NWS

Home | Current Version | Previous Version | Text Only | Print | Product List | Glossary On
Versions: 1 2 3 4 5 6 7 8 9 10 11 12 13 14 15 16 17 18 19 20 21 22
000
FTUS41 KBOX 200534
TAFFMH
TAF
KFMH 200534Z 2006/2106 22012G19KT P6SM OVC010 WS020/24040KT
     FM200800 22012G19KT 1SM BR OVC008
     FM200900 22011G20KT 1/2SM FG OVC003
     FM201300 23012KT 1SM BR OVC015
     FM201700 24014KT P6SM BKN015
     FM201800 24014KT P6SM BKN050
     FM202300 23013KT 1/2SM FG OVC003=

USA.gov is the U.S. government's official web portal to all federal, state and local government web resources and services.